Time;durP1;ratioP1;P1;durP2;ratioP2;P2;SDS_P1;SDS_P2;PMS_P1;PMS_P2;Temp;Humidity;BMP_temperature;BMP_pressure;BME280_temperature;BME280_humidity;BME280_pressure;Samples;Min_cycle;Max_cycle;Signal;HPM_P1;HPM_P2
2023/04/24 00:00:14;;;;;;;;;;;;;;;16.79;100.00;99719.13;5072732;28;19916;-52
2023/04/24 00:02:44;;;;;;;;;;;;;;;16.17;100.00;99733.13;5072883;28;19916;-54
2023/04/24 00:05:10;;;;;;;;;;;;;;;16.30;100.00;99739.94;5073207;28;19921;-55
2023/04/24 00:07:35;;;;;;;;;;;;;;;16.65;100.00;99731.47;5072891;28;19932;-55
2023/04/24 00:10:01;;;;;;;;;;;;;;;16.73;100.00;99742.59;5073060;28;19925;-50
2023/04/24 00:12:27;;;;;;;;;;;;;;;16.68;100.00;99736.34;5082922;28;19974;-53
2023/04/24 00:14:52;;;;;;;;;;;;;;;16.40;100.00;99750.00;5073256;28;19917;-50
2023/04/24 00:17:20;;;;;;;;;;;;;;;16.63;100.00;99742.53;5073064;28;19944;-53
2023/04/24 00:19:46;;;;;;;;;;;;;;;16.51;100.00;99744.63;5073240;28;19916;-53
2023/04/24 00:22:13;;;;;;;;;;;;;;;16.85;100.00;99741.56;5070787;28;19952;-50
2023/04/24 00:24:38;;;;;;;;;;;;;;;17.17;100.00;99751.41;5073174;28;19931;-54
2023/04/24 00:27:04;;;;;;;;;;;;;;;17.11;100.00;99741.66;5072910;28;19920;-54
2023/04/24 00:29:29;;;;;;;;;;;;;;;16.74;100.00;99755.00;5072236;28;19927;-53
2023/04/24 00:31:55;;;;;;;;;;;;;;;16.86;100.00;99754.78;5082558;28;19995;-51
2023/04/24 00:34:20;;;;;;;;;;;;;;;16.51;100.00;99750.03;5072039;28;19917;-54
2023/04/24 00:36:46;;;;;;;;;;;;;;;17.26;100.00;99749.78;5072931;28;19936;-51
2023/04/24 00:39:11;;;;;;;;;;;;;;;17.18;100.00;99750.31;5070289;28;20008;-52
2023/04/24 00:41:37;;;;;;;;;;;;;;;16.86;100.00;99746.69;5072723;28;19917;-53
2023/04/24 00:44:02;;;;;;;;;;;;;;;16.71;100.00;99744.72;5072631;28;19927;-55
2023/04/24 00:46:28;;;;;;;;;;;;;;;16.42;100.00;99753.22;5072831;28;19951;-53
2023/04/24 00:48:54;;;;;;;;;;;;;;;16.94;100.00;99758.03;5072838;28;19917;-55
2023/04/24 00:51:20;;;;;;;;;;;;;;;16.54;100.00;99755.72;5073062;28;19917;-53
2023/04/24 00:53:46;;;;;;;;;;;;;;;17.13;100.00;99750.31;5071715;28;19921;-52
2023/04/24 00:56:11;;;;;;;;;;;;;;;16.81;100.00;99764.75;5072054;28;19988;-51
2023/04/24 00:58:37;;;;;;;;;;;;;;;16.67;100.00;99757.13;5072843;28;20062;-49
2023/04/24 01:01:06;;;;;;;;;;;;;;;16.93;100.00;99765.34;5073675;28;19921;-53
2023/04/24 01:03:33;;;;;;;;;;;;;;;16.92;100.00;99761.03;5075734;28;19921;-53
2023/04/24 01:05:59;;;;;;;;;;;;;;;17.17;100.00;99764.91;5076687;28;19951;-53
2023/04/24 01:08:24;;;;;;;;;;;;;;;17.08;100.00;99766.53;5076638;28;19975;-51
2023/04/24 01:10:54;;;;;;;;;;;;;;;16.45;100.00;99768.91;5075441;28;19913;-49
2023/04/24 01:13:20;;;;;;;;;;;;;;;16.88;100.00;99763.44;5075606;28;19921;-50
2023/04/24 01:15:46;;;;;;;;;;;;;;;17.00;100.00;99760.53;5073854;28;19917;-49
2023/04/24 01:18:12;;;;;;;;;;;;;;;16.94;100.00;99758.88;5076202;28;20098;-55
2023/04/24 01:20:43;;;;;;;;;;;;;;;17.02;100.00;99754.88;5076299;28;19920;-52
2023/04/24 01:23:09;;;;;;;;;;;;;;;17.07;100.00;99757.59;5074210;28;19917;-53
2023/04/24 01:25:34;;;;;;;;;;;;;;;16.77;100.00;99759.88;5076249;28;19920;-51
2023/04/24 01:28:00;;;;;;;;;;;;;;;17.11;100.00;99764.06;5075149;28;19948;-52
2023/04/24 01:30:26;;;;;;;;;;;;;;;16.96;100.00;99754.00;5073184;28;19928;-53
2023/04/24 01:32:52;;;;;;;;;;;;;;;17.51;100.00;99755.53;5075222;28;19995;-56
2023/04/24 01:35:18;;;;;;;;;;;;;;;17.35;100.00;99763.59;5074862;28;19917;-51
2023/04/24 01:37:43;;;;;;;;;;;;;;;17.51;100.00;99750.91;5075963;28;19920;-52
2023/04/24 01:40:09;;;;;;;;;;;;;;;17.69;100.00;99755.00;5074752;28;19924;-50
2023/04/24 01:42:35;;;;;;;;;;;;;;;18.38;100.00;99762.03;5083840;28;19921;-57
2023/04/24 01:45:01;;;;;;;;;;;;;;;18.17;100.00;99764.75;5075605;28;19980;-50
2023/04/24 01:47:29;;;;;;;;;;;;;;;17.60;100.00;99753.91;5075919;28;19916;-53
2023/04/24 01:49:56;;;;;;;;;;;;;;;18.09;100.00;99758.00;5074903;28;19940;-54
2023/04/24 01:52:21;;;;;;;;;;;;;;;17.16;100.00;99750.56;5075515;28;19955;-55
2023/04/24 01:54:47;;;;;;;;;;;;;;;16.63;100.00;99758.75;5075453;28;19964;-56
2023/04/24 01:57:13;;;;;;;;;;;;;;;16.71;100.00;99744.72;5074839;28;19975;-53
2023/04/24 01:59:40;;;;;;;;;;;;;;;16.66;100.00;99757.38;5075658;28;19984;-54
2023/04/24 02:02:05;;;;;;;;;;;;;;;16.71;100.00;99750.13;5074726;28;19940;-54
2023/04/24 02:04:31;;;;;;;;;;;;;;;16.92;100.00;99752.91;5074395;28;19943;-51
2023/04/24 02:06:56;;;;;;;;;;;;;;;16.87;100.00;99756.41;5074581;28;20287;-54
2023/04/24 02:09:23;;;;;;;;;;;;;;;16.67;100.00;99754.44;5075463;28;19917;-52
2023/04/24 02:11:49;;;;;;;;;;;;;;;16.29;100.00;99742.88;5071992;28;19917;-54
2023/04/24 02:14:17;;;;;;;;;;;;;;;16.91;100.00;99752.09;5071688;28;19959;-55
2023/04/24 02:16:43;;;;;;;;;;;;;;;16.86;100.00;99751.28;5075244;28;19921;-54
2023/04/24 02:19:09;;;;;;;;;;;;;;;16.59;100.00;99752.22;5073999;28;19943;-51
2023/04/24 02:21:34;;;;;;;;;;;;;;;17.88;100.00;99766.09;5075151;28;19920;-57
2023/04/24 02:24:00;;;;;;;;;;;;;;;17.88;100.00;99768.78;5075112;28;19991;-51
2023/04/24 02:26:26;;;;;;;;;;;;;;;18.03;100.00;99772.63;5074363;28;19916;-55
2023/04/24 02:28:51;;;;;;;;;;;;;;;16.93;100.00;99759.94;5074948;28;19968;-53
2023/04/24 02:31:19;;;;;;;;;;;;;;;17.45;100.00;99752.00;5074961;28;19917;-57
2023/04/24 02:33:46;;;;;;;;;;;;;;;17.89;100.00;99761.50;5074986;28;19979;-55
2023/04/24 02:36:13;;;;;;;;;;;;;;;17.68;100.00;99761.50;5074674;28;19917;-54
2023/04/24 02:38:38;;;;;;;;;;;;;;;17.77;100.00;99754.47;5073365;28;19921;-55
2023/04/24 02:41:06;;;;;;;;;;;;;;;17.46;100.00;99750.91;5074872;28;19930;-54
2023/04/24 02:43:32;;;;;;;;;;;;;;;16.87;100.00;99751.00;5074687;28;19985;-50
2023/04/24 02:45:57;;;;;;;;;;;;;;;17.02;100.00;99752.97;5073844;28;19928;-56
2023/04/24 02:48:23;;;;;;;;;;;;;;;17.03;100.00;99757.28;5071696;28;19948;-56
2023/04/24 02:50:50;;;;;;;;;;;;;;;16.86;100.00;99753.97;5081737;28;19917;-55
2023/04/24 02:53:16;;;;;;;;;;;;;;;16.41;100.00;99751.59;5068878;28;19925;-54
2023/04/24 02:55:41;;;;;;;;;;;;;;;16.42;100.00;99755.09;5074038;28;19917;-55
2023/04/24 02:58:08;;;;;;;;;;;;;;;16.44;100.00;99748.38;5073316;28;21202;-56
2023/04/24 03:00:34;;;;;;;;;;;;;;;16.32;100.00;99758.56;5073102;28;19924;-55
2023/04/24 03:02:59;;;;;;;;;;;;;;;16.45;100.00;99750.00;5074388;28;20003;-56
2023/04/24 03:05:25;;;;;;;;;;;;;;;16.55;100.00;99761.91;5074317;28;19917;-57
2023/04/24 03:07:52;;;;;;;;;;;;;;;16.60;100.00;99749.28;5074010;28;19916;-54
2023/04/24 03:10:20;;;;;;;;;;;;;;;16.36;100.00;99746.16;5074013;28;19924;-56
2023/04/24 03:12:47;;;;;;;;;;;;;;;16.47;100.00;99753.25;5072564;28;19960;-57
2023/04/24 03:15:13;;;;;;;;;;;;;;;16.52;100.00;99741.69;5073102;28;19925;-57
2023/04/24 03:17:38;;;;;;;;;;;;;;;16.56;100.00;99739.25;5079721;28;19978;-55
2023/04/24 03:20:05;;;;;;;;;;;;;;;16.10;100.00;99754.09;5072921;28;19927;-53
2023/04/24 03:22:32;;;;;;;;;;;;;;;16.23;100.00;99741.25;5073454;28;19928;-51
2023/04/24 03:24:59;;;;;;;;;;;;;;;16.64;100.00;99746.88;5072438;28;19916;-57
2023/04/24 03:27:24;;;;;;;;;;;;;;;16.55;100.00;99738.47;5072689;28;19945;-56
2023/04/24 03:29:55;;;;;;;;;;;;;;;16.34;100.00;99746.44;5073037;28;19923;-57
2023/04/24 03:32:23;;;;;;;;;;;;;;;16.73;100.00;99741.78;5070565;28;19917;-54
2023/04/24 03:34:49;;;;;;;;;;;;;;;16.23;100.00;99744.72;5081438;28;19924;-57
2023/04/24 03:37:15;;;;;;;;;;;;;;;16.10;100.00;99737.09;5072592;28;19944;-55
2023/04/24 03:39:47;;;;;;;;;;;;;;;15.88;100.00;99743.38;5072646;28;19917;-56
2023/04/24 03:42:14;;;;;;;;;;;;;;;15.77;100.00;99735.22;5072886;28;19940;-55
2023/04/24 03:44:50;;;;;;;;;;;;;;;16.10;100.00;99735.22;5072040;28;19921;-57
2023/04/24 03:47:16;;;;;;;;;;;;;;;16.14;100.00;99733.63;5072423;28;19980;-56
2023/04/24 03:49:41;;;;;;;;;;;;;;;15.59;100.00;99747.19;5072675;28;19925;-53
2023/04/24 03:52:08;;;;;;;;;;;;;;;15.51;100.00;99731.50;5071907;28;19928;-54
2023/04/24 03:54:35;;;;;;;;;;;;;;;15.43;100.00;99729.25;5035915;28;19925;-55
2023/04/24 03:57:01;;;;;;;;;;;;;;;15.75;100.00;99734.66;5036193;28;19972;-54
2023/04/24 03:59:29;;;;;;;;;;;;;;;15.47;100.00;99733.88;5036202;28;19952;-56
2023/04/24 04:02:16;;;;;;;;;;;;;;;15.51;100.00;99736.06;5036065;28;19917;-58
2023/04/24 04:04:42;;;;;;;;;;;;;;;15.32;100.00;99737.25;5036076;28;19935;-56
2023/04/24 04:07:08;;;;;;;;;;;;;;;15.88;100.00;99725.34;5019716;28;19921;-57
2023/04/24 04:09:34;;;;;;;;;;;;;;;15.89;100.00;99745.84;5036205;28;19921;-54
2023/04/24 04:12:00;;;;;;;;;;;;;;;16.00;100.00;99745.94;5053235;28;19920;-55
2023/04/24 04:14:26;;;;;;;;;;;;;;;16.05;100.00;99748.66;5053325;28;19952;-55
2023/04/24 04:16:52;;;;;;;;;;;;;;;16.04;100.00;99745.16;5035983;28;20032;-54
2023/04/24 04:19:17;;;;;;;;;;;;;;;15.86;100.00;99746.34;5035909;28;19925;-56
2023/04/24 04:21:45;;;;;;;;;;;;;;;15.62;100.00;99749.38;5035750;28;19929;-55
2023/04/24 04:24:31;;;;;;;;;;;;;;;15.93;100.00;99754.25;5052176;28;19923;-54
2023/04/24 04:26:58;;;;;;;;;;;;;;;15.63;100.00;99760.97;5035941;28;19925;-56
2023/04/24 04:29:35;;;;;;;;;;;;;;;15.78;100.00;99766.47;5035868;28;19929;-56
2023/04/24 04:32:03;;;;;;;;;;;;;;;15.99;100.00;99772.06;5035769;28;19924;-51
2023/04/24 04:34:31;;;;;;;;;;;;;;;16.63;100.00;99772.25;5037342;28;19917;-53
2023/04/24 04:37:00;;;;;;;;;;;;;;;16.56;100.00;99764.38;5039638;28;19929;-55
2023/04/24 04:39:40;;;;;;;;;;;;;;;16.98;100.00;99776.19;5039480;28;19921;-58
2023/04/24 04:42:10;;;;;;;;;;;;;;;17.08;100.00;99775.41;5040019;28;20013;-56
2023/04/24 04:44:39;;;;;;;;;;;;;;;16.41;100.00;99786.69;5039349;28;19928;-57
2023/04/24 04:47:08;;;;;;;;;;;;;;;16.59;100.00;99780.03;5037404;28;19941;-56
2023/04/24 04:49:35;;;;;;;;;;;;;;;16.85;100.00;99782.06;5039668;28;19932;-56
2023/04/24 04:52:04;;;;;;;;;;;;;;;16.91;100.00;99786.41;5039602;28;19921;-57
2023/04/24 04:54:31;;;;;;;;;;;;;;;16.72;100.00;99788.72;5038690;28;19921;-57
2023/04/24 04:56:57;;;;;;;;;;;;;;;16.63;100.00;99791.13;5038889;28;19921;-57
2023/04/24 04:59:23;;;;;;;;;;;;;;;16.38;100.00;99779.13;5056376;28;19917;-57
2023/04/24 05:01:55;;;;;;;;;;;;;;;16.54;100.00;99780.00;5053800;28;19922;-58
2023/04/24 05:04:24;;;;;;;;;;;;;;;16.28;100.00;99781.72;5036695;28;19925;-57
2023/04/24 05:06:51;;;;;;;;;;;;;;;16.44;100.00;99775.38;5039254;28;19917;-55
2023/04/24 05:09:17;;;;;;;;;;;;;;;17.15;100.00;99764.38;5038813;28;19917;-57
2023/04/24 05:11:51;;;;;;;;;;;;;;;17.07;100.00;99773.78;5039000;28;19944;-56
2023/04/24 05:14:17;;;;;;;;;;;;;;;16.57;100.00;99775.97;5039044;28;19917;-57
2023/04/24 05:16:43;;;;;;;;;;;;;;;17.11;100.00;99779.50;5056207;28;20320;-56
2023/04/24 05:19:11;;;;;;;;;;;;;;;16.96;100.00;99789.13;5038862;28;19923;-55
2023/04/24 05:21:40;;;;;;;;;;;;;;;16.46;100.00;99784.00;5038688;28;20245;-58
2023/04/24 05:24:06;;;;;;;;;;;;;;;16.00;100.00;99784.47;5038723;28;20394;-57
2023/04/24 05:26:51;;;;;;;;;;;;;;;16.08;100.00;99799.38;5055766;28;19999;-55
2023/04/24 05:29:22;;;;;;;;;;;;;;;16.16;100.00;99801.63;5052988;28;19921;-58
2023/04/24 05:31:48;;;;;;;;;;;;;;;16.70;100.00;99816.00;5055750;28;19917;-57
2023/04/24 05:34:15;;;;;;;;;;;;;;;20.94;100.00;99820.53;5038447;28;19964;-56
2023/04/24 05:36:43;;;;;;;;;;;;;;;21.08;100.00;99826.88;5037743;28;19939;-55
2023/04/24 05:39:08;;;;;;;;;;;;;;;21.03;100.00;99840.53;5038219;28;19917;-58
2023/04/24 05:41:34;;;;;;;;;;;;;;;19.72;100.00;99842.75;5038196;28;19916;-54
2023/04/24 05:44:00;;;;;;;;;;;;;;;19.98;100.00;99844.50;5055616;28;19917;-56
2023/04/24 05:46:25;;;;;;;;;;;;;;;20.48;100.00;99858.72;5054328;28;20005;-55
2023/04/24 05:48:51;;;;;;;;;;;;;;;20.04;100.00;99857.75;5034269;28;19984;-56
2023/04/24 05:51:17;;;;;;;;;;;;;;;19.86;100.00;99875.50;5037309;28;19925;-56
2023/04/24 05:53:43;;;;;;;;;;;;;;;19.69;100.00;99873.13;5061517;28;19988;-55
2023/04/24 05:56:09;;;;;;;;;;;;;;;19.41;100.00;99880.09;5073925;28;19917;-57
2023/04/24 05:58:35;;;;;;;;;;;;;;;19.67;100.00;99893.50;5074299;28;19996;-55
2023/04/24 06:01:02;;;;;;;;;;;;;;;18.84;100.00;99900.00;5088269;28;19917;-57
2023/04/24 06:03:27;;;;;;;;;;;;;;;23.28;98.85;99911.13;5074325;28;19931;-55
2023/04/24 06:05:53;;;;;;;;;;;;;;;19.16;100.00;99914.34;5074937;28;19948;-54
2023/04/24 06:08:20;;;;;;;;;;;;;;;18.28;100.00;99907.06;5074012;28;19917;-57
2023/04/24 06:10:47;;;;;;;;;;;;;;;17.98;100.00;99916.75;5073686;28;19928;-57
2023/04/24 06:13:12;;;;;;;;;;;;;;;18.29;100.00;99924.94;5074969;28;19917;-57
2023/04/24 06:15:45;;;;;;;;;;;;;;;18.21;100.00;99920.06;5074047;28;19947;-57
2023/04/24 06:18:24;;;;;;;;;;;;;;;18.12;100.00;99936.00;5069652;28;19929;-58
2023/04/24 06:20:51;;;;;;;;;;;;;;;17.71;100.00;99936.69;5070597;28;19920;-54
2023/04/24 06:23:17;;;;;;;;;;;;;;;18.14;100.00;99944.69;5074504;28;19923;-57
2023/04/24 06:25:42;;;;;;;;;;;;;;;18.16;100.00;99947.91;5074339;28;19941;-57
2023/04/24 06:28:10;;;;;;;;;;;;;;;20.70;100.00;99960.66;5074673;28;19924;-57
2023/04/24 06:30:35;;;;;;;;;;;;;;;19.19;100.00;99968.78;5074360;28;19948;-57
2023/04/24 06:33:01;;;;;;;;;;;;;;;18.87;100.00;99971.78;5074573;28;19939;-55
2023/04/24 06:35:26;;;;;;;;;;;;;;;19.10;100.00;99975.84;5073454;28;19916;-57
2023/04/24 06:37:51;;;;;;;;;;;;;;;19.22;100.00;99974.72;5074199;28;19925;-53
2023/04/24 06:40:18;;;;;;;;;;;;;;;19.44;100.00;99977.13;5074194;28;19920;-58
2023/04/24 06:42:44;;;;;;;;;;;;;;;18.69;100.00;99978.56;5074031;28;19921;-57
2023/04/24 06:45:10;;;;;;;;;;;;;;;18.35;100.00;99982.59;5074000;28;19991;-56
2023/04/24 06:47:36;;;;;;;;;;;;;;;18.74;100.00;99987.50;5073579;28;19916;-58
2023/04/24 06:50:01;;;;;;;;;;;;;;;18.92;100.00;99988.03;5073908;28;19920;-57
2023/04/24 06:52:26;;;;;;;;;;;;;;;18.48;100.00;99995.63;5073449;28;19921;-56
2023/04/24 06:54:51;;;;;;;;;;;;;;;18.12;100.00;99994.75;5072203;28;19916;-57
2023/04/24 06:57:17;;;;;;;;;;;;;;;18.57;100.00;100012.16;5072092;28;19940;-56
2023/04/24 06:59:42;;;;;;;;;;;;;;;17.79;100.00;100011.09;5072017;28;19924;-57
2023/04/24 07:02:08;;;;;;;;;;;;;;;18.33;100.00;100019.94;5073562;28;19916;-58
2023/04/24 07:04:33;;;;;;;;;;;;;;;17.56;100.00;100018.56;5073665;28;20415;-57
2023/04/24 07:06:58;;;;;;;;;;;;;;;17.65;100.00;100027.00;5073570;28;19929;-56
2023/04/24 07:09:27;;;;;;;;;;;;;;;18.00;100.00;100049.06;5073416;28;19921;-56
2023/04/24 07:11:53;;;;;;;;;;;;;;;20.01;100.00;100044.75;5073408;28;19951;-56
2023/04/24 07:14:19;;;;;;;;;;;;;;;19.35;100.00;100061.72;5073532;28;19917;-57
2023/04/24 07:16:45;;;;;;;;;;;;;;;18.75;100.00;100067.66;5073724;28;19948;-58
2023/04/24 07:19:10;;;;;;;;;;;;;;;18.48;100.00;100068.72;5072210;28;19920;-59
2023/04/24 07:21:36;;;;;;;;;;;;;;;18.28;100.00;100076.78;5073671;28;19917;-56
2023/04/24 07:24:01;;;;;;;;;;;;;;;18.77;100.00;100092.59;5073491;28;19917;-57
2023/04/24 07:26:27;;;;;;;;;;;;;;;18.27;100.00;100108.41;5073582;28;20279;-58
2023/04/24 07:28:53;;;;;;;;;;;;;;;17.78;100.00;100098.72;5073461;28;19916;-55
2023/04/24 07:31:18;;;;;;;;;;;;;;;18.58;100.00;100107.72;5073564;28;19925;-54
2023/04/24 07:33:43;;;;;;;;;;;;;;;19.23;100.00;100128.13;5073380;28;19944;-57
2023/04/24 07:36:15;;;;;;;;;;;;;;;19.25;100.00;100131.38;5072887;28;19940;-57
2023/04/24 07:38:40;;;;;;;;;;;;;;;19.30;100.00;100137.63;5072095;28;19927;-56
2023/04/24 07:41:05;;;;;;;;;;;;;;;19.44;100.00;100150.66;5073428;28;19924;-55
2023/04/24 07:43:31;;;;;;;;;;;;;;;18.85;100.00;100152.72;5073379;28;19917;-56
2023/04/24 07:45:56;;;;;;;;;;;;;;;19.85;100.00;100150.59;5073424;28;19921;-55
2023/04/24 07:48:22;;;;;;;;;;;;;;;19.07;100.00;100163.38;5073125;28;19948;-56
2023/04/24 07:50:48;;;;;;;;;;;;;;;19.22;100.00;100159.03;5072860;28;19995;-53
2023/04/24 07:53:13;;;;;;;;;;;;;;;19.16;100.00;100178.00;5072999;28;19944;-54
2023/04/24 07:55:39;;;;;;;;;;;;;;;18.96;100.00;100181.47;5071927;28;19917;-58
2023/04/24 07:58:04;;;;;;;;;;;;;;;18.76;100.00;100183.03;5072826;28;19972;-56
2023/04/24 08:00:30;;;;;;;;;;;;;;;18.53;100.00;100186.22;5072512;28;19917;-56
2023/04/24 08:02:55;;;;;;;;;;;;;;;18.98;100.00;100187.47;5073142;28;19923;-56
2023/04/24 08:05:20;;;;;;;;;;;;;;;20.12;100.00;100208.34;5072965;28;20000;-57
2023/04/24 08:07:48;;;;;;;;;;;;;;;19.02;100.00;100202.09;5073065;28;19992;-58
2023/04/24 08:10:14;;;;;;;;;;;;;;;18.67;100.00;100211.72;5075170;28;19935;-53
2023/04/24 08:12:41;;;;;;;;;;;;;;;19.75;100.00;100213.00;5077227;28;19920;-57
2023/04/24 08:15:06;;;;;;;;;;;;;;;19.75;100.00;100216.53;5077006;28;19942;-56
2023/04/24 08:17:32;;;;;;;;;;;;;;;19.02;100.00;100222.94;5077059;28;19920;-53
2023/04/24 08:20:01;;;;;;;;;;;;;;;18.84;100.00;100226.94;5076780;28;19916;-56
2023/04/24 08:22:29;;;;;;;;;;;;;;;18.80;100.00;100225.84;5075189;28;19980;-56
2023/04/24 08:24:56;;;;;;;;;;;;;;;18.92;100.00;100234.56;5075374;28;19939;-56
2023/04/24 08:27:22;;;;;;;;;;;;;;;18.97;100.00;100245.41;5076988;28;19980;-56
2023/04/24 08:29:47;;;;;;;;;;;;;;;19.50;100.00;100241.75;5076517;28;19924;-56
2023/04/24 08:32:12;;;;;;;;;;;;;;;19.71;100.00;100258.03;5076779;28;19921;-56
2023/04/24 08:34:37;;;;;;;;;;;;;;;19.20;100.00;100265.81;5076936;28;19917;-56
2023/04/24 08:37:03;;;;;;;;;;;;;;;18.38;100.00;100260.06;5076808;28;19920;-58
2023/04/24 08:39:29;;;;;;;;;;;;;;;19.22;100.00;100271.00;5075813;28;19951;-55
2023/04/24 08:41:55;;;;;;;;;;;;;;;18.83;100.00;100269.47;5076359;28;19928;-56
2023/04/24 08:44:20;;;;;;;;;;;;;;;19.94;100.00;100283.03;5073308;28;19916;-57
2023/04/24 08:46:47;;;;;;;;;;;;;;;20.19;100.00;100291.13;5074649;28;20007;-56
2023/04/24 08:49:16;;;;;;;;;;;;;;;19.03;100.00;100285.03;5076684;28;19916;-55
2023/04/24 08:51:41;;;;;;;;;;;;;;;18.81;100.00;100289.78;5076112;28;19912;-52
2023/04/24 08:54:07;;;;;;;;;;;;;;;18.31;100.00;100309.00;5059285;28;19949;-57
2023/04/24 08:56:33;;;;;;;;;;;;;;;17.98;100.00;100305.47;5056302;28;20481;-58
2023/04/24 08:59:00;;;;;;;;;;;;;;;17.86;100.00;100317.28;5056255;28;19944;-55
2023/04/24 09:01:26;;;;;;;;;;;;;;;18.71;100.00;100318.47;5055797;28;19925;-52
2023/04/24 09:03:53;;;;;;;;;;;;;;;18.34;100.00;100324.72;5055952;28;19925;-54
2023/04/24 09:06:19;;;;;;;;;;;;;;;18.19;100.00;100326.22;5056257;28;19921;-52
2023/04/24 09:08:45;;;;;;;;;;;;;;;17.99;100.00;100326.84;5056185;28;19944;-54
2023/04/24 09:11:11;;;;;;;;;;;;;;;17.70;100.00;100337.97;5055791;28;19921;-56
2023/04/24 09:13:37;;;;;;;;;;;;;;;17.55;100.00;100333.22;5055207;28;19917;-54
2023/04/24 09:16:02;;;;;;;;;;;;;;;17.14;100.00;100340.88;5053906;28;19917;-53
2023/04/24 09:18:27;;;;;;;;;;;;;;;16.82;100.00;100339.63;5055823;28;19921;-52
2023/04/24 09:21:03;;;;;;;;;;;;;;;17.10;100.00;100350.53;5054563;28;19989;-55
2023/04/24 09:23:30;;;;;;;;;;;;;;;17.41;100.00;100357.09;5054967;28;19928;-53
2023/04/24 09:25:55;;;;;;;;;;;;;;;17.75;100.00;100373.16;5055901;28;19913;-55
2023/04/24 09:28:25;;;;;;;;;;;;;;;17.65;100.00;100369.53;5055783;28;19917;-55
2023/04/24 09:31:01;;;;;;;;;;;;;;;17.91;100.00;100382.25;5052816;28;19927;-57
2023/04/24 09:33:26;;;;;;;;;;;;;;;18.88;100.00;100374.31;5053289;28;19972;-53
2023/04/24 09:35:52;;;;;;;;;;;;;;;18.56;100.00;100380.63;5055614;28;19917;-53
2023/04/24 09:38:17;;;;;;;;;;;;;;;18.33;100.00;100379.94;5055484;28;19921;-54
2023/04/24 09:40:43;;;;;;;;;;;;;;;18.19;100.00;100383.06;5055283;28;19988;-55
2023/04/24 09:43:11;;;;;;;;;;;;;;;18.98;100.00;100389.81;5055576;28;19948;-53
2023/04/24 09:45:40;;;;;;;;;;;;;;;18.95;100.00;100383.06;5055311;28;19917;-57
2023/04/24 09:48:08;;;;;;;;;;;;;;;18.92;100.00;100397.94;5055340;28;19918;-53
2023/04/24 09:50:34;;;;;;;;;;;;;;;18.59;100.00;100401.78;5055162;28;19921;-55
2023/04/24 09:53:04;;;;;;;;;;;;;;;18.63;99.78;100402.88;5055287;28;19952;-55
2023/04/24 09:55:29;;;;;;;;;;;;;;;19.11;98.35;100416.50;5055313;28;19917;-55
2023/04/24 09:57:56;;;;;;;;;;;;;;;18.91;94.30;100411.72;5054957;28;19943;-55
2023/04/24 10:00:26;;;;;;;;;;;;;;;18.70;94.41;100414.31;5054951;28;19928;-50
2023/04/24 10:02:59;;;;;;;;;;;;;;;18.20;96.74;100432.59;5055060;28;20011;-54
2023/04/24 10:05:29;;;;;;;;;;;;;;;18.38;96.44;100428.69;5053159;28;19929;-53
2023/04/24 10:07:58;;;;;;;;;;;;;;;19.08;97.67;100432.44;5053308;28;19924;-53
2023/04/24 10:10:23;;;;;;;;;;;;;;;18.72;95.08;100439.25;5054843;28;19956;-51
2023/04/24 10:12:50;;;;;;;;;;;;;;;18.89;94.66;100440.97;5053586;28;19948;-56
2023/04/24 10:15:16;;;;;;;;;;;;;;;19.02;94.66;100447.84;5054600;28;19917;-53
2023/04/24 10:17:42;;;;;;;;;;;;;;;18.11;94.05;100436.84;5053961;28;19921;-55
2023/04/24 10:20:08;;;;;;;;;;;;;;;19.14;91.92;100442.22;5054357;28;23824;-52
2023/04/24 10:22:33;;;;;;;;;;;;;;;19.17;93.56;100441.72;5054299;28;19935;-54
2023/04/24 10:24:59;;;;;;;;;;;;;;;18.82;90.99;100445.81;5054409;28;19924;-55
2023/04/24 10:27:26;;;;;;;;;;;;;;;18.83;93.37;100455.56;5053304;28;19964;-53
2023/04/24 10:29:52;;;;;;;;;;;;;;;18.57;95.35;100466.22;5054632;28;19917;-56
2023/04/24 10:32:18;;;;;;;;;;;;;;;18.57;97.79;100466.22;5054036;28;19917;-52
2023/04/24 10:34:44;;;;;;;;;;;;;;;18.20;95.79;100460.47;5034319;28;19928;-49
2023/04/24 10:37:09;;;;;;;;;;;;;;;17.94;95.72;100470.19;5054205;28;19944;-51
2023/04/24 10:39:37;;;;;;;;;;;;;;;17.54;98.78;100468.63;5053717;28;19972;-54
2023/04/24 10:42:14;;;;;;;;;;;;;;;18.81;91.97;100465.84;5053958;28;19917;-55
2023/04/24 10:44:39;;;;;;;;;;;;;;;18.84;93.74;100468.03;5051976;28;19925;-56
2023/04/24 10:47:12;;;;;;;;;;;;;;;18.77;93.63;100471.78;5052594;28;19928;-52
2023/04/24 10:49:37;;;;;;;;;;;;;;;19.29;87.46;100490.31;5054081;28;19959;-54
2023/04/24 10:52:05;;;;;;;;;;;;;;;19.74;88.81;100479.94;5053833;28;19927;-53
2023/04/24 10:54:33;;;;;;;;;;;;;;;19.06;86.20;100485.03;5050597;28;19921;-53
2023/04/24 10:57:17;;;;;;;;;;;;;;;19.34;86.69;100479.50;5050687;28;19944;-52
2023/04/24 10:59:43;;;;;;;;;;;;;;;19.47;87.30;100489.03;5053348;28;19928;-55
2023/04/24 11:02:09;;;;;;;;;;;;;;;18.27;90.76;100505.47;5050342;28;19917;-52
2023/04/24 11:04:37;;;;;;;;;;;;;;;17.48;92.91;100492.06;5050096;28;19940;-55
2023/04/24 11:07:03;;;;;;;;;;;;;;;17.59;96.19;100504.69;5047914;28;19937;-53
2023/04/24 11:09:32;;;;;;;;;;;;;;;17.68;98.34;100507.75;5053095;28;19956;-55
2023/04/24 11:12:08;;;;;;;;;;;;;;;18.18;98.81;100503.19;5050553;28;20336;-50
2023/04/24 11:14:57;;;;;;;;;;;;;;;18.48;97.18;100522.72;5048697;28;19917;-53
2023/04/24 11:17:28;;;;;;;;;;;;;;;18.16;97.17;100518.88;5047701;28;19920;-56
2023/04/24 11:20:00;;;;;;;;;;;;;;;18.86;93.93;100530.91;5048287;28;19924;-52
2023/04/24 11:22:26;;;;;;;;;;;;;;;17.09;98.31;100514.50;5051554;28;19932;-52
2023/04/24 11:24:53;;;;;;;;;;;;;;;18.69;92.29;100526.44;5052903;28;19917;-56
2023/04/24 11:27:24;;;;;;;;;;;;;;;18.38;92.86;100515.31;5035316;28;19988;-54
2023/04/24 11:29:56;;;;;;;;;;;;;;;19.08;90.54;100521.88;5050445;28;19917;-55
2023/04/24 11:32:34;;;;;;;;;;;;;;;20.23;88.94;100526.78;5051416;28;19913;-51
2023/04/24 11:35:01;;;;;;;;;;;;;;;19.14;87.79;100515.41;5049226;28;19972;-55
2023/04/24 11:37:33;;;;;;;;;;;;;;;19.15;85.86;100519.78;5050290;28;19930;-52
2023/04/24 11:39:58;;;;;;;;;;;;;;;20.07;85.40;100529.47;5046467;28;19928;-51
2023/04/24 11:42:25;;;;;;;;;;;;;;;19.18;84.49;100552.59;5051870;28;19925;-54
2023/04/24 11:44:55;;;;;;;;;;;;;;;20.49;81.45;100544.75;5050745;28;19921;-54
2023/04/24 11:47:27;;;;;;;;;;;;;;;21.41;73.91;100534.16;5048519;28;19929;-55
2023/04/24 11:49:52;;;;;;;;;;;;;;;20.62;73.37;100550.75;5050019;28;19913;-53
2023/04/24 11:52:18;;;;;;;;;;;;;;;20.55;75.89;100550.22;5053945;28;19917;-50
2023/04/24 11:54:50;;;;;;;;;;;;;;;20.02;77.66;100551.97;5072809;28;19989;-53
2023/04/24 11:57:16;;;;;;;;;;;;;;;18.94;81.07;100552.13;5071999;28;19984;-57
2023/04/24 11:59:42;;;;;;;;;;;;;;;18.13;83.03;100564.59;5072661;28;19943;-51
2023/04/24 12:02:07;;;;;;;;;;;;;;;18.31;82.88;100566.13;5072784;28;19917;-51
2023/04/24 12:04:40;;;;;;;;;;;;;;;17.88;87.32;100585.63;5072603;28;19992;-53
2023/04/24 12:07:08;;;;;;;;;;;;;;;17.34;91.34;100584.34;5072776;28;19989;-54
2023/04/24 12:09:44;;;;;;;;;;;;;;;17.40;93.49;100584.41;5070469;28;19944;-53
2023/04/24 12:12:10;;;;;;;;;;;;;;;17.85;93.39;100601.53;5072398;28;19936;-53
2023/04/24 12:14:43;;;;;;;;;;;;;;;17.31;96.34;100584.84;5072641;28;19916;-56
2023/04/24 12:17:08;;;;;;;;;;;;;;;18.99;93.41;100590.13;5072758;28;19935;-54
2023/04/24 12:19:34;;;;;;;;;;;;;;;19.53;91.24;100580.19;5072489;28;19916;-55
2023/04/24 12:22:03;;;;;;;;;;;;;;;20.19;85.60;100595.19;5072129;28;19981;-55
2023/04/24 12:24:30;;;;;;;;;;;;;;;21.39;80.69;100601.59;5072380;28;19988;-55
2023/04/24 12:26:56;;;;;;;;;;;;;;;20.87;79.48;100600.78;5071444;28;19924;-55
2023/04/24 12:29:22;;;;;;;;;;;;;;;21.03;77.08;100618.75;5071971;28;19935;-54
2023/04/24 12:31:49;;;;;;;;;;;;;;;20.30;78.05;100603.38;5072200;28;19917;-55
2023/04/24 12:34:20;;;;;;;;;;;;;;;20.35;81.26;100622.41;5072039;28;19951;-57